createdAt,value
2019-01-12T00:00:58.292Z,1007.14
2019-01-12T00:01:58.281Z,1007.19
2019-01-12T00:02:58.272Z,1007.14
2019-01-12T00:03:58.283Z,1007.14
2019-01-12T00:04:58.252Z,1007.15
2019-01-12T00:05:58.243Z,1007.11
2019-01-12T00:06:58.224Z,1007.18
2019-01-12T00:07:58.228Z,1007.21
2019-01-12T00:08:58.237Z,1007.24
2019-01-12T00:09:58.198Z,1007.22
2019-01-12T00:10:58.179Z,1007.17
2019-01-12T00:11:58.172Z,1007.17
2019-01-12T00:12:58.157Z,1007.19
2019-01-12T00:13:58.142Z,1007.17
2019-01-12T00:14:58.164Z,1007.19
2019-01-12T00:15:58.133Z,1007.20
2019-01-12T00:16:58.133Z,1007.24
2019-01-12T00:17:58.106Z,1007.22
2019-01-12T00:18:58.101Z,1007.25
2019-01-12T00:19:58.107Z,1007.23
2019-01-12T00:20:58.075Z,1007.26
2019-01-12T00:21:58.069Z,1007.23
2019-01-12T00:22:58.063Z,1007.25
2019-01-12T00:23:58.041Z,1007.24
2019-01-12T00:24:58.073Z,1007.19
2019-01-12T00:25:58.020Z,1007.21
2019-01-12T00:26:58.003Z,1007.29
2019-01-12T00:27:58.019Z,1007.27
2019-01-12T00:28:57.984Z,1007.18
2019-01-12T00:29:57.970Z,1007.22
2019-01-12T00:30:57.993Z,1007.35
2019-01-12T00:31:57.971Z,1007.22
2019-01-12T00:32:57.941Z,1007.27
2019-01-12T00:33:57.936Z,1007.31
2019-01-12T00:34:57.915Z,1007.32
2019-01-12T00:35:57.928Z,1007.31
2019-01-12T00:36:57.895Z,1007.34
2019-01-12T00:37:58.678Z,1007.29
2019-01-12T00:38:57.898Z,1007.26
2019-01-12T00:39:57.870Z,1007.31
2019-01-12T00:40:57.855Z,1007.32
2019-01-12T00:41:57.857Z,1007.33
2019-01-12T00:42:57.831Z,1007.32
2019-01-12T00:43:57.821Z,1007.26
2019-01-12T00:44:57.818Z,1007.30
2019-01-12T00:45:57.822Z,1007.33
2019-01-12T00:46:57.799Z,1007.37
2019-01-12T00:47:57.772Z,1007.34
2019-01-12T00:48:57.762Z,1007.33
2019-01-12T00:49:57.752Z,1007.38
2019-01-12T00:50:57.759Z,1007.36
2019-01-12T00:51:57.771Z,1007.39
2019-01-12T00:52:57.730Z,1007.39
2019-01-12T00:53:57.740Z,1007.40
2019-01-12T00:54:57.700Z,1007.42
2019-01-12T00:55:57.688Z,1007.40
2019-01-12T00:56:57.688Z,1007.42
2019-01-12T00:57:57.689Z,1007.46
2019-01-12T00:58:57.677Z,1007.42
2019-01-12T00:59:57.646Z,1007.43
2019-01-12T01:00:57.630Z,1007.51
2019-01-12T01:01:57.626Z,1007.48
2019-01-12T01:02:57.637Z,1007.50
2019-01-12T01:03:57.615Z,1007.54
2019-01-12T01:04:57.596Z,1007.45
2019-01-12T01:05:57.589Z,1007.47
2019-01-12T01:06:57.575Z,1007.45
2019-01-12T01:07:57.586Z,1007.50
2019-01-12T01:08:57.539Z,1007.56
2019-01-12T01:09:57.536Z,1007.48
2019-01-12T01:10:57.552Z,1007.51
2019-01-12T01:11:57.554Z,1007.51
2019-01-12T01:12:57.518Z,1007.56
2019-01-12T01:13:57.510Z,1007.50
2019-01-12T01:14:57.486Z,1007.55
2019-01-12T01:15:57.507Z,1007.60
2019-01-12T01:16:57.477Z,1007.68
2019-01-12T01:17:57.494Z,1007.66
2019-01-12T01:18:58.221Z,1007.67
2019-01-12T01:19:57.474Z,1007.67
2019-01-12T01:20:57.418Z,1007.68
2019-01-12T01:21:57.412Z,1007.74
2019-01-12T01:22:57.397Z,1007.70
2019-01-12T01:23:57.393Z,1007.71
2019-01-12T01:24:57.400Z,1007.78
2019-01-12T01:25:57.368Z,1007.76
2019-01-12T01:26:57.350Z,1007.76
2019-01-12T01:27:57.333Z,1007.74
2019-01-12T01:28:57.335Z,1007.74
2019-01-12T01:29:58.276Z,1007.73
2019-01-12T01:30:57.344Z,1007.74
2019-01-12T01:31:57.294Z,1007.74
2019-01-12T01:32:57.292Z,1007.75
2019-01-12T01:33:57.284Z,1007.76
2019-01-12T01:34:57.292Z,1007.73
2019-01-12T01:35:57.288Z,1007.77
2019-01-12T01:36:57.259Z,1007.81
2019-01-12T01:37:57.254Z,1007.76
2019-01-12T01:38:57.229Z,1007.79
2019-01-12T01:39:57.213Z,1007.86
2019-01-12T01:40:57.197Z,1007.85
2019-01-12T01:41:57.204Z,1007.88
2019-01-12T01:42:57.191Z,1007.84
2019-01-12T01:43:57.221Z,1007.89
2019-01-12T01:44:57.159Z,1007.92
2019-01-12T01:45:57.138Z,1007.88
2019-01-12T01:46:57.165Z,1007.93
2019-01-12T01:47:57.130Z,1007.93
2019-01-12T01:48:57.124Z,1007.87
2019-01-12T01:49:57.109Z,1007.94
2019-01-12T01:50:57.088Z,1007.96
2019-01-12T01:51:57.094Z,1007.97
2019-01-12T01:52:57.067Z,1008.05
2019-01-12T01:53:57.053Z,1008.01
2019-01-12T01:54:57.052Z,1008.05
2019-01-12T01:55:57.069Z,1008.05
2019-01-12T01:56:57.034Z,1008.04
2019-01-12T01:57:57.053Z,1008.07
2019-01-12T01:58:57.003Z,1008.01
2019-01-12T01:59:56.992Z,1008.01
2019-01-12T02:00:56.993Z,1007.99
2019-01-12T02:01:56.987Z,1008.00
2019-01-12T02:02:56.995Z,1007.99
2019-01-12T02:03:56.947Z,1007.98
2019-01-12T02:04:56.934Z,1008.00
2019-01-12T02:05:56.929Z,1008.01
2019-01-12T02:06:56.939Z,1008.01
2019-01-12T02:07:56.940Z,1008.03
2019-01-12T02:08:56.903Z,1008.04
2019-01-12T02:09:56.893Z,1008.10
2019-01-12T02:10:56.865Z,1008.08
2019-01-12T02:11:56.937Z,1008.13
2019-01-12T02:12:56.874Z,1008.03
2019-01-12T02:13:56.839Z,1008.03
2019-01-12T02:14:56.836Z,1008.08
2019-01-12T02:15:56.835Z,1008.05
2019-01-12T02:16:56.801Z,1008.07
2019-01-12T02:17:56.878Z,1008.02
2019-01-12T02:18:56.798Z,1008.05
2019-01-12T02:19:56.792Z,1008.03
2019-01-12T02:20:56.769Z,1008.06
2019-01-12T02:21:56.759Z,1008.01
2019-01-12T02:22:56.741Z,1008.07
2019-01-12T02:23:56.761Z,1008.01
2019-01-12T02:25:00.123Z,1008.00
2019-01-12T02:25:56.711Z,1007.95
2019-01-12T02:26:56.711Z,1007.97
2019-01-12T02:27:56.697Z,1007.94
2019-01-12T02:28:56.687Z,1007.98
2019-01-12T02:29:56.712Z,1008.00
2019-01-12T02:30:56.670Z,1007.94
2019-01-12T02:31:56.643Z,1007.91
2019-01-12T02:32:56.637Z,1007.91
2019-01-12T02:33:56.628Z,1007.95
2019-01-12T02:34:56.614Z,1007.94
2019-01-12T02:35:56.630Z,1007.92
2019-01-12T02:36:56.586Z,1007.93
2019-01-12T02:37:56.578Z,1007.88
2019-01-12T02:38:56.585Z,1007.89
2019-01-12T02:39:56.574Z,1007.87
2019-01-12T02:40:56.577Z,1007.85
2019-01-12T02:41:56.546Z,1007.84
2019-01-12T02:42:56.542Z,1007.82
2019-01-12T02:43:56.513Z,1007.87
2019-01-12T02:44:56.495Z,1007.85
2019-01-12T02:45:56.527Z,1007.81
2019-01-12T02:46:56.507Z,1007.82
2019-01-12T02:47:56.481Z,1007.84
2019-01-12T02:48:56.460Z,1007.88
2019-01-12T02:49:56.448Z,1007.88
2019-01-12T02:50:56.467Z,1007.93
2019-01-12T02:51:56.437Z,1007.88
2019-01-12T02:52:56.422Z,1007.95
2019-01-12T02:53:56.420Z,1007.91
2019-01-12T02:54:56.392Z,1007.90
2019-01-12T02:55:56.420Z,1007.86
2019-01-12T02:56:56.374Z,1007.84
2019-01-12T02:57:56.358Z,1007.87
2019-01-12T02:58:56.354Z,1007.81
2019-01-12T02:59:56.353Z,1007.85
2019-01-12T03:00:56.372Z,1007.83
2019-01-12T03:01:56.341Z,1007.89
2019-01-12T03:02:56.314Z,1007.89
2019-01-12T03:03:56.297Z,1007.90
2019-01-12T03:04:56.288Z,1007.85
2019-01-12T03:05:56.288Z,1007.85
2019-01-12T03:06:56.373Z,1007.86
2019-01-12T03:07:56.254Z,1007.87
2019-01-12T03:08:56.249Z,1007.88
2019-01-12T03:09:56.230Z,1007.87
2019-01-12T03:10:56.229Z,1007.83
2019-01-12T03:11:56.246Z,1007.83
2019-01-12T03:12:56.266Z,1007.85
2019-01-12T03:13:56.200Z,1007.79
2019-01-12T03:14:56.173Z,1007.82
2019-01-12T03:15:56.181Z,1007.90
2019-01-12T03:16:56.154Z,1007.82
2019-01-12T03:17:56.162Z,1007.81
2019-01-12T03:18:56.139Z,1007.84
2019-01-12T03:19:56.134Z,1007.82
2019-01-12T03:20:56.111Z,1007.85
2019-01-12T03:21:56.098Z,1007.90
2019-01-12T03:22:56.126Z,1007.82
2019-01-12T03:23:56.095Z,1007.81
2019-01-12T03:24:56.078Z,1007.78
2019-01-12T03:25:56.066Z,1007.81
2019-01-12T03:26:56.042Z,1007.78
2019-01-12T03:27:56.034Z,1007.76
2019-01-12T03:28:56.287Z,1007.82
2019-01-12T03:29:56.009Z,1007.76
2019-01-12T03:30:56.017Z,1007.73
2019-01-12T03:31:56.011Z,1007.76
2019-01-12T03:32:55.998Z,1007.80
2019-01-12T03:33:55.995Z,1007.75
2019-01-12T03:34:55.959Z,1007.79
2019-01-12T03:35:55.946Z,1007.70
2019-01-12T03:36:55.942Z,1007.73
2019-01-12T03:37:55.931Z,1007.73
2019-01-12T03:38:55.936Z,1007.70
2019-01-12T03:39:55.914Z,1007.67
2019-01-12T03:40:55.909Z,1007.67
2019-01-12T03:41:55.875Z,1007.67
2019-01-12T03:42:55.884Z,1007.67
2019-01-12T03:43:55.870Z,1007.64
2019-01-12T03:44:55.851Z,1007.69
2019-01-12T03:45:55.871Z,1007.69
2019-01-12T03:46:55.821Z,1007.66
2019-01-12T03:47:55.819Z,1007.68
2019-01-12T03:48:55.801Z,1007.68
2019-01-12T03:49:55.786Z,1007.68
2019-01-12T03:50:55.790Z,1007.64
2019-01-12T03:51:55.811Z,1007.67
2019-01-12T03:52:55.760Z,1007.65
2019-01-12T03:53:55.752Z,1007.65
2019-01-12T03:54:55.745Z,1007.61
2019-01-12T03:55:55.736Z,1007.60
2019-01-12T03:56:55.747Z,1007.60
2019-01-12T03:57:55.745Z,1007.62
2019-01-12T03:58:55.696Z,1007.55
2019-01-12T03:59:55.687Z,1007.58
2019-01-12T04:00:55.680Z,1007.55
2019-01-12T04:01:55.666Z,1007.56
2019-01-12T04:02:55.666Z,1007.58
2019-01-12T04:03:55.669Z,1007.67
2019-01-12T04:04:55.637Z,1007.59
2019-01-12T04:05:55.633Z,1007.62
2019-01-12T04:06:55.604Z,1007.58
2019-01-12T04:07:55.596Z,1007.61
2019-01-12T04:08:55.620Z,1007.64
2019-01-12T04:09:55.618Z,1007.56
2019-01-12T04:10:55.571Z,1007.56
2019-01-12T04:11:55.587Z,1007.57
2019-01-12T04:12:55.537Z,1007.55
2019-01-12T04:13:55.534Z,1007.55
2019-01-12T04:14:55.535Z,1007.52
2019-01-12T04:15:55.544Z,1007.50
2019-01-12T04:16:55.509Z,1007.45
2019-01-12T04:17:55.518Z,1007.46
2019-01-12T04:18:55.497Z,1007.44
2019-01-12T04:19:55.462Z,1007.43
2019-01-12T04:20:55.455Z,1007.47
2019-01-12T04:21:55.448Z,1007.46
2019-01-12T04:22:55.444Z,1007.44
2019-01-12T04:23:55.449Z,1007.48
2019-01-12T04:24:55.417Z,1007.45
2019-01-12T04:25:55.399Z,1007.48
2019-01-12T04:26:55.407Z,1007.49
2019-01-12T04:27:55.388Z,1007.47
2019-01-12T04:28:55.397Z,1007.51
2019-01-12T04:29:55.367Z,1007.46
2019-01-12T04:30:55.381Z,1007.50
2019-01-12T04:31:55.343Z,1007.48
2019-01-12T04:32:55.331Z,1007.46
2019-01-12T04:33:55.309Z,1007.53
2019-01-12T04:34:55.329Z,1007.47
2019-01-12T04:35:55.307Z,1007.44
2019-01-12T04:36:55.312Z,1007.45
2019-01-12T04:37:55.278Z,1007.41
2019-01-12T04:38:55.267Z,1007.33
2019-01-12T04:39:55.259Z,1007.39
2019-01-12T04:40:55.272Z,1007.38
2019-01-12T04:41:55.234Z,1007.34
2019-01-12T04:42:55.223Z,1007.38
2019-01-12T04:43:55.204Z,1007.36
2019-01-12T04:44:55.198Z,1007.35
2019-01-12T04:45:55.207Z,1007.40
2019-01-12T04:46:55.207Z,1007.37
2019-01-12T04:47:55.166Z,1007.33
2019-01-12T04:48:55.204Z,1007.38
2019-01-12T04:49:55.153Z,1007.37
2019-01-12T04:50:55.162Z,1007.39
2019-01-12T04:51:55.120Z,1007.34
2019-01-12T04:52:55.114Z,1007.35
2019-01-12T04:53:55.098Z,1007.35
2019-01-12T04:54:55.101Z,1007.32
2019-01-12T04:55:55.085Z,1007.38
2019-01-12T04:56:55.081Z,1007.36
2019-01-12T04:57:55.068Z,1007.36
2019-01-12T04:58:55.060Z,1007.36
2019-01-12T04:59:55.044Z,1007.37
2019-01-12T05:00:55.027Z,1007.36
2019-01-12T05:01:55.045Z,1007.31
2019-01-12T05:02:54.993Z,1007.40
2019-01-12T05:03:54.984Z,1007.40
2019-01-12T05:04:54.984Z,1007.38
2019-01-12T05:05:54.963Z,1007.40
2019-01-12T05:06:54.994Z,1007.39
2019-01-12T05:07:54.956Z,1007.44
2019-01-12T05:08:54.944Z,1007.44
2019-01-12T05:09:54.933Z,1007.41
2019-01-12T05:10:54.906Z,1007.37
2019-01-12T05:11:54.900Z,1007.42
2019-01-12T05:12:54.916Z,1007.41
2019-01-12T05:13:54.889Z,1007.41
2019-01-12T05:14:54.862Z,1007.39
2019-01-12T05:15:54.859Z,1007.44
2019-01-12T05:16:54.849Z,1007.39
2019-01-12T05:17:54.866Z,1007.41
2019-01-12T05:18:54.840Z,1007.42
2019-01-12T05:19:54.853Z,1007.40
2019-01-12T05:20:54.808Z,1007.40
2019-01-12T05:21:54.800Z,1007.44
2019-01-12T05:22:54.784Z,1007.41
2019-01-12T05:23:54.798Z,1007.47
2019-01-12T05:24:54.756Z,1007.39
2019-01-12T05:25:54.749Z,1007.42
2019-01-12T05:26:54.746Z,1007.42
2019-01-12T05:27:54.733Z,1007.40
2019-01-12T05:28:54.725Z,1007.40
2019-01-12T05:29:54.725Z,1007.40
2019-01-12T05:30:54.698Z,1007.41
2019-01-12T05:31:54.691Z,1007.36
2019-01-12T05:32:54.684Z,1007.41
2019-01-12T05:33:54.701Z,1007.43
2019-01-12T05:34:54.668Z,1007.44
2019-01-12T05:35:54.658Z,1007.47
2019-01-12T05:36:54.627Z,1007.46
2019-01-12T05:37:54.618Z,1007.45
2019-01-12T05:38:54.644Z,1007.45
2019-01-12T05:39:54.621Z,1007.42
2019-01-12T05:40:54.596Z,1007.46
2019-01-12T05:41:54.583Z,1007.43
2019-01-12T05:42:54.593Z,1007.46
2019-01-12T05:43:54.593Z,1007.40
2019-01-12T05:44:54.589Z,1007.43
2019-01-12T05:45:54.537Z,1007.43
2019-01-12T05:46:54.516Z,1007.38
2019-01-12T05:47:54.508Z,1007.37
2019-01-12T05:48:54.499Z,1007.30
2019-01-12T05:49:54.507Z,1007.29
2019-01-12T05:50:54.480Z,1007.27
2019-01-12T05:51:54.481Z,1007.34
2019-01-12T05:52:54.497Z,1007.35
2019-01-12T05:53:54.458Z,1007.31
2019-01-12T05:54:54.463Z,1007.34
2019-01-12T05:55:58.091Z,1007.35
2019-01-12T05:56:54.413Z,1007.39
2019-01-12T05:57:54.402Z,1007.41
2019-01-12T05:58:54.415Z,1007.32
2019-01-12T05:59:54.403Z,1007.34
2019-01-12T06:00:54.362Z,1007.40
2019-01-12T06:01:54.359Z,1007.34
2019-01-12T06:02:54.351Z,1007.35
2019-01-12T06:03:54.390Z,1007.33
2019-01-12T06:04:54.355Z,1007.32
2019-01-12T06:05:54.321Z,1007.31
2019-01-12T06:06:54.300Z,1007.32
2019-01-12T06:07:54.288Z,1007.27
2019-01-12T06:08:54.293Z,1007.32
2019-01-12T06:09:54.298Z,1007.34
2019-01-12T06:10:54.289Z,1007.34
2019-01-12T06:11:54.252Z,1007.31
2019-01-12T06:12:54.243Z,1007.34
2019-01-12T06:13:54.240Z,1007.35
2019-01-12T06:14:54.212Z,1007.37
2019-01-12T06:15:54.283Z,1007.35
2019-01-12T06:16:54.197Z,1007.37
2019-01-12T06:17:54.186Z,1007.38
2019-01-12T06:18:54.179Z,1007.34
2019-01-12T06:19:54.167Z,1007.38
2019-01-12T06:20:54.307Z,1007.39
2019-01-12T06:21:54.139Z,1007.38
2019-01-12T06:22:54.138Z,1007.39
2019-01-12T06:23:54.129Z,1007.40
2019-01-12T06:24:54.126Z,1007.40
2019-01-12T06:25:54.121Z,1007.42
2019-01-12T06:26:54.093Z,1007.37
2019-01-12T06:27:54.313Z,1007.41
2019-01-12T06:28:54.060Z,1007.43
2019-01-12T06:29:54.049Z,1007.39
2019-01-12T06:30:54.044Z,1007.41
2019-01-12T06:31:54.041Z,1007.46
2019-01-12T06:32:54.036Z,1007.44
2019-01-12T06:33:54.006Z,1007.42
2019-01-12T06:34:54.007Z,1007.45
2019-01-12T06:35:53.993Z,1007.50
2019-01-12T06:36:53.990Z,1007.44
2019-01-12T06:37:53.989Z,1007.41
2019-01-12T06:38:53.948Z,1007.42
2019-01-12T06:39:53.942Z,1007.40
2019-01-12T06:40:53.960Z,1007.44
2019-01-12T06:41:53.920Z,1007.48
2019-01-12T06:42:53.938Z,1007.41
2019-01-12T06:43:53.914Z,1007.41
2019-01-12T06:44:53.897Z,1007.38
2019-01-12T06:45:53.890Z,1007.41
2019-01-12T06:46:53.861Z,1007.37
2019-01-12T06:47:53.869Z,1007.41
2019-01-12T06:48:53.879Z,1007.47
2019-01-12T06:49:53.851Z,1007.43
2019-01-12T06:50:53.822Z,1007.44
2019-01-12T06:51:53.822Z,1007.46
2019-01-12T06:52:53.801Z,1007.45
2019-01-12T06:53:53.823Z,1007.39
2019-01-12T06:54:53.792Z,1007.44
2019-01-12T06:55:53.797Z,1007.33
2019-01-12T06:56:53.764Z,1007.32
2019-01-12T06:57:53.784Z,1007.28
2019-01-12T06:58:53.729Z,1007.27
2019-01-12T06:59:53.719Z,1007.32
2019-01-12T07:00:53.704Z,1007.33
2019-01-12T07:01:53.696Z,1007.34
2019-01-12T07:02:53.700Z,1007.32
2019-01-12T07:03:53.706Z,1007.30
2019-01-12T07:04:53.685Z,1007.29
2019-01-12T07:05:53.658Z,1007.31
2019-01-12T07:06:53.649Z,1007.30
2019-01-12T07:07:53.645Z,1007.26
2019-01-12T07:08:53.672Z,1007.30
2019-01-12T07:09:53.640Z,1007.36
2019-01-12T07:10:53.596Z,1007.39
2019-01-12T07:11:53.593Z,1007.37
2019-01-12T07:12:53.571Z,1007.37
2019-01-12T07:13:53.577Z,1007.33
2019-01-12T07:14:53.590Z,1007.38
2019-01-12T07:15:53.556Z,1007.33
2019-01-12T07:16:53.543Z,1007.34
2019-01-12T07:17:53.541Z,1007.38
2019-01-12T07:18:53.524Z,1007.36
2019-01-12T07:19:53.525Z,1007.41
2019-01-12T07:20:53.498Z,1007.41
2019-01-12T07:21:53.492Z,1007.39
2019-01-12T07:22:53.485Z,1007.44
2019-01-12T07:23:53.458Z,1007.42
2019-01-12T07:24:53.448Z,1007.37
2019-01-12T07:25:53.456Z,1007.38
2019-01-12T07:26:53.443Z,1007.37
2019-01-12T07:27:53.450Z,1007.39
2019-01-12T07:28:53.418Z,1007.39
2019-01-12T07:29:53.408Z,1007.41
2019-01-12T07:30:53.405Z,1007.39
2019-01-12T07:31:53.369Z,1007.40
2019-01-12T07:32:53.368Z,1007.41
2019-01-12T07:33:53.347Z,1007.42
2019-01-12T07:34:53.348Z,1007.41
2019-01-12T07:35:53.381Z,1007.39
2019-01-12T07:36:53.325Z,1007.41
2019-01-12T07:37:53.320Z,1007.34
2019-01-12T07:38:53.303Z,1007.31
2019-01-12T07:39:53.293Z,1007.35
2019-01-12T07:40:53.287Z,1007.41
2019-01-12T07:41:53.297Z,1007.40
2019-01-12T07:42:53.263Z,1007.47
2019-01-12T07:43:53.236Z,1007.39
2019-01-12T07:44:53.240Z,1007.43
2019-01-12T07:45:53.215Z,1007.42
2019-01-12T07:46:53.252Z,1007.43
2019-01-12T07:47:53.207Z,1007.44
2019-01-12T07:48:53.203Z,1007.43
2019-01-12T07:49:53.189Z,1007.49
2019-01-12T07:50:53.170Z,1007.43
2019-01-12T07:51:53.155Z,1007.41
2019-01-12T07:52:53.172Z,1007.35
2019-01-12T07:53:53.145Z,1007.38
2019-01-12T07:54:53.125Z,1007.36
2019-01-12T07:55:53.106Z,1007.35
2019-01-12T07:56:53.096Z,1007.32
2019-01-12T07:57:53.129Z,1007.28
2019-01-12T07:58:53.091Z,1007.32
2019-01-12T07:59:53.076Z,1007.34
2019-01-12T08:00:53.083Z,1007.30
2019-01-12T08:01:53.060Z,1007.26
2019-01-12T08:02:53.029Z,1007.30
2019-01-12T08:03:53.041Z,1007.18
2019-01-12T08:04:53.752Z,1007.29
2019-01-12T08:05:53.008Z,1007.17
2019-01-12T08:06:53.004Z,1007.18
2019-01-12T08:07:52.992Z,1007.18
2019-01-12T08:08:52.967Z,1007.18
2019-01-12T08:09:52.960Z,1007.15
2019-01-12T08:10:53.845Z,1007.18
2019-01-12T08:11:52.961Z,1007.14
2019-01-12T08:12:52.929Z,1007.13
2019-01-12T08:13:52.951Z,1007.09
2019-01-12T08:14:52.904Z,1007.08
2019-01-12T08:15:52.892Z,1007.13
2019-01-12T08:16:52.879Z,1007.11
2019-01-12T08:17:52.876Z,1007.07
2019-01-12T08:18:52.897Z,1007.10
2019-01-12T08:19:52.859Z,1007.07
2019-01-12T08:20:52.847Z,1007.05
2019-01-12T08:21:52.833Z,1007.07
2019-01-12T08:22:53.719Z,1007.14
2019-01-12T08:23:52.811Z,1007.11
2019-01-12T08:24:52.827Z,1007.09
2019-01-12T08:25:52.790Z,1007.09
2019-01-12T08:26:52.776Z,1007.08
2019-01-12T08:27:52.764Z,1007.08
2019-01-12T08:28:52.752Z,1007.06
2019-01-12T08:29:52.758Z,1007.02
2019-01-12T08:30:52.736Z,1007.09
2019-01-12T08:31:52.728Z,1007.01
2019-01-12T08:32:52.717Z,1006.96
2019-01-12T08:33:52.713Z,1006.91
2019-01-12T08:34:52.710Z,1006.90
2019-01-12T08:35:52.694Z,1006.96
2019-01-12T08:36:52.662Z,1006.97
2019-01-12T08:37:52.660Z,1006.94
2019-01-12T08:38:52.652Z,1006.92
2019-01-12T08:39:52.640Z,1006.88
2019-01-12T08:40:52.654Z,1006.94
2019-01-12T08:41:52.613Z,1006.85
2019-01-12T08:42:52.601Z,1006.74
2019-01-12T08:43:52.598Z,1006.76
2019-01-12T08:44:52.598Z,1006.79
2019-01-12T08:45:52.577Z,1006.77
2019-01-12T08:46:52.574Z,1006.73
2019-01-12T08:47:52.561Z,1006.71
2019-01-12T08:48:52.534Z,1006.73
2019-01-12T08:49:52.547Z,1006.69
2019-01-12T08:50:52.542Z,1006.67
2019-01-12T08:51:52.544Z,1006.68
2019-01-12T08:52:52.497Z,1006.66
2019-01-12T08:53:52.489Z,1006.68
2019-01-12T08:54:52.463Z,1006.63
2019-01-12T08:55:52.454Z,1006.63
2019-01-12T08:56:52.457Z,1006.65
2019-01-12T08:57:52.627Z,1006.58
2019-01-12T08:58:52.427Z,1006.62
2019-01-12T08:59:52.412Z,1006.58
2019-01-12T09:00:52.404Z,1006.59
2019-01-12T09:01:52.387Z,1006.55
2019-01-12T09:02:52.395Z,1006.59
2019-01-12T09:03:52.528Z,1006.52
2019-01-12T09:04:52.368Z,1006.56
2019-01-12T09:05:52.349Z,1006.49
2019-01-12T09:06:52.345Z,1006.52
2019-01-12T09:07:52.326Z,1006.49
2019-01-12T09:08:52.328Z,1006.48
2019-01-12T09:09:52.305Z,1006.47
2019-01-12T09:10:52.310Z,1006.45
2019-01-12T09:11:52.286Z,1006.39
2019-01-12T09:12:52.273Z,1006.38
2019-01-12T09:13:52.293Z,1006.34
2019-01-12T09:14:52.263Z,1006.38
2019-01-12T09:15:52.256Z,1006.34
2019-01-12T09:16:52.247Z,1006.30
2019-01-12T09:17:52.222Z,1006.33
2019-01-12T09:18:52.213Z,1006.33
2019-01-12T09:19:52.205Z,1006.30
2019-01-12T09:20:52.180Z,1006.30
2019-01-12T09:21:52.177Z,1006.24
2019-01-12T09:22:52.168Z,1006.19
2019-01-12T09:23:52.157Z,1006.25
2019-01-12T09:24:52.181Z,1006.27
2019-01-12T09:25:52.148Z,1006.23
2019-01-12T09:26:52.143Z,1006.26
2019-01-12T09:27:52.119Z,1006.23
2019-01-12T09:28:52.106Z,1006.25
2019-01-12T09:29:52.102Z,1006.24
2019-01-12T09:30:52.107Z,1006.22
2019-01-12T09:31:52.116Z,1006.17
2019-01-12T09:32:52.059Z,1006.20
2019-01-12T09:33:52.038Z,1006.23
2019-01-12T09:34:52.040Z,1006.20
2019-01-12T09:35:52.038Z,1006.15
2019-01-12T09:36:52.781Z,1006.20
2019-01-12T09:37:52.005Z,1006.17
2019-01-12T09:38:51.987Z,1006.13
2019-01-12T09:39:51.966Z,1006.11
2019-01-12T09:40:51.967Z,1006.08
2019-01-12T09:41:51.970Z,1006.07
2019-01-12T09:42:51.952Z,1006.07
2019-01-12T09:43:51.942Z,1006.06
2019-01-12T09:44:51.932Z,1006.01
2019-01-12T09:45:51.914Z,1006.04
2019-01-12T09:46:51.922Z,1005.94
2019-01-12T09:47:51.895Z,1005.96
2019-01-12T09:48:51.886Z,1005.99
2019-01-12T09:49:51.882Z,1005.97
2019-01-12T09:50:51.865Z,1005.92
2019-01-12T09:51:51.872Z,1005.93
2019-01-12T09:52:51.833Z,1005.90
2019-01-12T09:53:51.834Z,1005.92
2019-01-12T09:54:51.813Z,1005.89
2019-01-12T09:55:51.819Z,1005.88
2019-01-12T09:56:52.002Z,1005.86
2019-01-12T09:57:51.797Z,1005.85
2019-01-12T09:58:51.765Z,1005.86
2019-01-12T09:59:51.756Z,1005.85
2019-01-12T10:00:51.753Z,1005.76
2019-01-12T10:01:51.762Z,1005.77
2019-01-12T10:02:51.746Z,1005.77
2019-01-12T10:03:51.714Z,1005.61
2019-01-12T10:04:51.696Z,1005.68
2019-01-12T10:05:51.737Z,1005.67
2019-01-12T10:06:51.688Z,1005.70
2019-01-12T10:07:51.700Z,1005.60
2019-01-12T10:08:51.664Z,1005.61
2019-01-12T10:09:51.660Z,1005.58
2019-01-12T10:10:51.627Z,1005.62
2019-01-12T10:11:51.627Z,1005.58
2019-01-12T10:12:51.661Z,1005.57
2019-01-12T10:13:51.597Z,1005.57
2019-01-12T10:14:51.622Z,1005.54
2019-01-12T10:15:51.624Z,1005.55
2019-01-12T10:16:51.569Z,1005.56
2019-01-12T10:17:51.565Z,1005.48
2019-01-12T10:18:51.554Z,1005.47
2019-01-12T10:19:51.547Z,1005.50
2019-01-12T10:20:51.544Z,1005.49
2019-01-12T10:21:51.541Z,1005.47
2019-01-12T10:22:51.512Z,1005.46
2019-01-12T10:23:51.510Z,1005.46
2019-01-12T10:24:51.482Z,1005.40
2019-01-12T10:25:51.491Z,1005.41
2019-01-12T10:26:51.496Z,1005.38
2019-01-12T10:27:51.455Z,1005.37
2019-01-12T10:28:51.446Z,1005.29
2019-01-12T10:29:51.457Z,1005.30
2019-01-12T10:30:51.417Z,1005.29
2019-01-12T10:31:51.408Z,1005.26
2019-01-12T10:32:51.410Z,1005.31
2019-01-12T10:33:51.393Z,1005.31
2019-01-12T10:34:51.371Z,1005.29
2019-01-12T10:35:51.382Z,1005.29
2019-01-12T10:36:51.364Z,1005.24
2019-01-12T10:37:51.337Z,1005.28
2019-01-12T10:38:51.338Z,1005.29
2019-01-12T10:39:51.350Z,1005.23
2019-01-12T10:40:51.337Z,1005.25
2019-01-12T10:41:51.298Z,1005.25
2019-01-12T10:42:51.278Z,1005.25
2019-01-12T10:43:51.284Z,1005.21
2019-01-12T10:44:51.266Z,1005.17
2019-01-12T10:45:51.279Z,1005.15
2019-01-12T10:46:51.265Z,1005.13
2019-01-12T10:47:51.238Z,1005.13
2019-01-12T10:48:51.209Z,1005.09
2019-01-12T10:49:51.205Z,1005.04
2019-01-12T10:50:51.201Z,1005.03
2019-01-12T10:51:51.225Z,1005.06
2019-01-12T10:52:51.192Z,1005.00
2019-01-12T10:53:51.176Z,1005.02
2019-01-12T10:54:51.148Z,1005.02
2019-01-12T10:55:51.144Z,1005.02
2019-01-12T10:56:51.150Z,1004.97
2019-01-12T10:57:51.139Z,1004.96
2019-01-12T10:58:51.115Z,1004.99
2019-01-12T10:59:51.113Z,1004.92
2019-01-12T11:00:51.102Z,1004.95
2019-01-12T11:01:51.083Z,1004.87
2019-01-12T11:02:51.096Z,1004.97
2019-01-12T11:03:51.072Z,1004.91
2019-01-12T11:04:51.076Z,1004.91
2019-01-12T11:05:51.049Z,1004.85
2019-01-12T11:06:51.062Z,1004.89
2019-01-12T11:07:51.023Z,1004.89
2019-01-12T11:08:50.991Z,1004.84
2019-01-12T11:09:50.980Z,1004.94
2019-01-12T11:10:50.984Z,1004.87
2019-01-12T11:11:50.983Z,1004.74
2019-01-12T11:12:50.987Z,1004.74
2019-01-12T11:13:50.949Z,1004.70
2019-01-12T11:14:50.925Z,1004.75
2019-01-12T11:15:50.940Z,1004.71
2019-01-12T11:16:50.910Z,1004.76
2019-01-12T11:17:50.917Z,1004.73
2019-01-12T11:18:50.898Z,1004.66
2019-01-12T11:19:50.902Z,1004.68
2019-01-12T11:20:50.873Z,1004.62
2019-01-12T11:21:50.863Z,1004.68
2019-01-12T11:22:50.866Z,1004.67
2019-01-12T11:23:50.857Z,1004.61
2019-01-12T11:24:50.871Z,1004.61
2019-01-12T11:25:50.823Z,1004.61
2019-01-12T11:26:50.806Z,1004.62
2019-01-12T11:27:50.805Z,1004.52
2019-01-12T11:28:50.778Z,1004.52
2019-01-12T11:29:50.764Z,1004.51
2019-01-12T11:30:50.770Z,1004.31
2019-01-12T11:31:50.800Z,1004.34
2019-01-12T11:32:50.759Z,1004.40
2019-01-12T11:33:50.730Z,1004.29
2019-01-12T11:34:50.703Z,1004.35
2019-01-12T11:35:50.722Z,1004.29
2019-01-12T11:36:50.693Z,1004.27
2019-01-12T11:37:50.687Z,1004.23
2019-01-12T11:38:50.661Z,1004.23
2019-01-12T11:39:50.655Z,1004.18
2019-01-12T11:40:50.668Z,1004.22
2019-01-12T11:41:50.642Z,1004.22
2019-01-12T11:42:50.632Z,1004.19
2019-01-12T11:43:50.619Z,1004.10
2019-01-12T11:44:50.631Z,1004.02
2019-01-12T11:45:50.794Z,1004.09
2019-01-12T11:46:50.592Z,1004.15
2019-01-12T11:47:50.567Z,1004.10
2019-01-12T11:48:50.554Z,1004.03
2019-01-12T11:49:50.541Z,1004.08
2019-01-12T11:50:50.573Z,1004.11
2019-01-12T11:51:50.615Z,1004.07
2019-01-12T11:52:50.509Z,1004.06
2019-01-12T11:53:50.497Z,1003.95
2019-01-12T11:54:50.500Z,1003.95
2019-01-12T11:55:50.480Z,1004.02
2019-01-12T11:56:50.482Z,1003.99
2019-01-12T11:57:50.481Z,1003.97
2019-01-12T11:58:50.476Z,1004.04
2019-01-12T11:59:50.433Z,1004.06
2019-01-12T12:00:50.428Z,1004.00
2019-01-12T12:01:50.441Z,1003.96
2019-01-12T12:02:50.422Z,1003.97
2019-01-12T12:03:50.403Z,1003.96
2019-01-12T12:04:50.387Z,1003.95
2019-01-12T12:05:50.377Z,1003.94